createdAt,value
2022-10-11T00:00:05.329Z,7.72
2022-10-11T00:03:26.959Z,8.38
2022-10-11T00:06:48.535Z,8.10
2022-10-11T00:10:12.513Z,7.93
2022-10-11T00:13:34.243Z,8.00
2022-10-11T00:16:58.240Z,7.60
2022-10-11T00:20:27.408Z,7.82
2022-10-11T00:23:49.085Z,7.68
2022-10-11T00:27:10.886Z,7.63
2022-10-11T00:30:35.464Z,7.72
2022-10-11T00:33:59.378Z,7.68
2022-10-11T00:37:20.880Z,7.10
2022-10-11T00:40:43.148Z,7.53
2022-10-11T00:44:22.628Z,8.15
2022-10-11T00:47:46.896Z,7.70
2022-10-11T00:51:26.059Z,7.68
2022-10-11T00:54:48.482Z,14.05
2022-10-11T00:58:13.566Z,7.60
2022-10-11T01:01:35.159Z,7.80
2022-10-11T01:05:17.820Z,7.28
2022-10-11T01:08:41.935Z,7.38
2022-10-11T01:12:06.439Z,8.23
2022-10-11T01:16:19.927Z,7.85
2022-10-11T01:20:19.021Z,7.40
2022-10-11T01:23:46.580Z,7.63
2022-10-11T01:27:38.019Z,7.50
2022-10-11T01:31:12.998Z,7.95
2022-10-11T01:35:11.600Z,7.45
2022-10-11T01:39:01.895Z,7.38
2022-10-11T01:42:27.270Z,6.85
2022-10-11T01:45:52.753Z,7.78
2022-10-11T01:49:14.320Z,7.68
2022-10-11T01:52:43.993Z,7.07
2022-10-11T01:56:42.898Z,7.15
2022-10-11T02:00:04.677Z,7.30
2022-10-11T02:03:33.965Z,7.60
2022-10-11T02:07:04.613Z,7.38
2022-10-11T02:10:42.609Z,7.80
2022-10-11T02:14:11.694Z,7.95
2022-10-11T02:17:39.077Z,7.90
2022-10-11T02:21:11.352Z,7.32
2022-10-11T02:24:39.441Z,7.13
2022-10-11T02:28:07.476Z,7.40
2022-10-11T02:31:35.570Z,7.47
2022-10-11T02:35:02.430Z,7.25
2022-10-11T02:38:34.782Z,7.00
2022-10-11T02:41:59.945Z,7.82
2022-10-11T02:45:34.562Z,7.95
2022-10-11T02:48:59.405Z,7.18
2022-10-11T02:52:23.402Z,6.82
2022-10-11T02:55:45.343Z,7.13
2022-10-11T02:59:11.367Z,6.50
2022-10-11T03:02:35.585Z,6.80
2022-10-11T03:06:04.604Z,7.40
2022-10-11T03:09:28.861Z,7.00
2022-10-11T03:12:50.648Z,6.30
2022-10-11T03:16:15.046Z,6.40
2022-10-11T03:19:41.573Z,6.60
2022-10-11T03:23:03.101Z,6.68
2022-10-11T03:26:26.845Z,6.30
2022-10-11T03:29:48.413Z,6.80
2022-10-11T03:33:12.220Z,6.28
2022-10-11T03:36:34.131Z,6.35
2022-10-11T03:39:55.652Z,6.32
2022-10-11T03:43:19.578Z,6.68
2022-10-11T03:46:48.342Z,6.68
2022-10-11T03:50:10.041Z,5.85
2022-10-11T03:53:31.578Z,6.60
2022-10-11T03:56:53.177Z,6.45
2022-10-11T04:00:14.846Z,6.20
2022-10-11T04:03:36.395Z,6.40
2022-10-11T04:06:57.929Z,7.60
2022-10-11T04:10:19.455Z,6.65
2022-10-11T04:13:41.096Z,6.13
2022-10-11T04:17:02.684Z,6.15
2022-10-11T04:20:24.264Z,6.38
2022-10-11T04:23:45.783Z,7.30
2022-10-11T04:27:09.395Z,6.35
2022-10-11T04:30:30.977Z,5.72
2022-10-11T04:33:54.837Z,6.20
2022-10-11T04:37:22.115Z,5.88
2022-10-11T04:40:43.704Z,6.28
2022-10-11T04:44:05.237Z,6.25
2022-10-11T04:47:26.770Z,6.55
2022-10-11T04:50:48.491Z,6.40
2022-10-11T04:54:12.370Z,6.72
2022-10-11T04:57:36.237Z,6.65
2022-10-11T05:00:58.062Z,5.97
2022-10-11T05:04:22.348Z,6.10
2022-10-11T05:07:46.291Z,6.10
2022-10-11T05:11:11.400Z,6.68
2022-10-11T05:14:35.135Z,6.38
2022-10-11T05:17:56.693Z,6.60
2022-10-11T05:21:23.801Z,6.30
2022-10-11T05:24:47.854Z,6.57
2022-10-11T05:28:11.740Z,6.72
2022-10-11T05:31:33.417Z,5.38
2022-10-11T05:34:54.936Z,5.75
2022-10-11T05:38:16.892Z,6.22
2022-10-11T05:41:43.640Z,5.60
2022-10-11T05:45:06.998Z,5.95
2022-10-11T05:48:31.092Z,5.93
2022-10-11T05:51:52.688Z,5.90
2022-10-11T05:55:14.286Z,5.85
2022-10-11T05:58:39.475Z,6.38
2022-10-11T06:02:03.529Z,7.32
2022-10-11T06:05:25.135Z,6.97
2022-10-11T06:08:47.893Z,8.90
2022-10-11T06:12:14.089Z,7.20
2022-10-11T06:15:38.873Z,6.07
2022-10-11T06:19:00.442Z,5.60
2022-10-11T06:22:24.044Z,5.70
2022-10-11T06:25:59.067Z,5.43
2022-10-11T06:29:25.472Z,6.05
2022-10-11T06:32:49.349Z,6.40
2022-10-11T06:36:13.214Z,7.38
2022-10-11T06:39:35.343Z,6.43
2022-10-11T06:42:56.901Z,6.68
2022-10-11T06:46:27.288Z,7.10
2022-10-11T06:49:48.860Z,6.55
2022-10-11T06:53:11.285Z,5.80
2022-10-11T06:56:32.893Z,5.75
2022-10-11T06:59:54.477Z,5.47
2022-10-11T07:03:18.329Z,5.40
2022-10-11T07:06:41.194Z,5.93
2022-10-11T07:10:02.720Z,5.43
2022-10-11T07:13:24.542Z,5.88
2022-10-11T07:16:46.105Z,6.13
2022-10-11T07:20:08.298Z,5.20
2022-10-11T07:23:32.358Z,5.22
2022-10-11T07:26:53.946Z,5.05
2022-10-11T07:30:17.705Z,5.90
2022-10-11T07:33:41.873Z,5.22
2022-10-11T07:37:05.754Z,5.47
2022-10-11T07:40:27.654Z,5.30
2022-10-11T07:43:55.006Z,5.63
2022-10-11T07:47:16.557Z,6.43
2022-10-11T07:50:40.425Z,5.57
2022-10-11T07:54:06.985Z,6.13
2022-10-11T07:57:29.031Z,5.60
2022-10-11T08:00:55.722Z,6.50
2022-10-11T08:04:22.192Z,7.03
2022-10-11T08:07:43.879Z,5.82
2022-10-11T08:11:06.275Z,6.03
2022-10-11T08:14:27.986Z,6.07
2022-10-11T08:17:51.864Z,6.13
2022-10-11T08:21:17.696Z,6.05
2022-10-11T08:24:39.225Z,6.38
2022-10-11T08:28:03.010Z,5.82
2022-10-11T08:31:24.659Z,6.38
2022-10-11T08:34:46.198Z,7.78
2022-10-11T08:38:09.980Z,6.65
2022-10-11T08:41:57.446Z,6.63
2022-10-11T08:45:32.719Z,6.95
2022-10-11T08:48:54.984Z,7.13
2022-10-11T08:52:30.375Z,7.38
2022-10-11T08:55:54.320Z,6.45
2022-10-11T08:59:35.840Z,6.78
2022-10-11T09:03:25.328Z,7.68
2022-10-11T09:07:05.388Z,8.00
2022-10-11T09:10:45.541Z,7.63
2022-10-11T09:14:37.230Z,7.43
2022-10-11T09:18:04.713Z,7.90
2022-10-11T09:21:32.361Z,9.00
2022-10-11T09:25:15.403Z,8.27
2022-10-11T09:29:01.769Z,7.43
2022-10-11T09:32:28.044Z,7.70
2022-10-11T09:35:52.863Z,7.93
2022-10-11T09:39:29.796Z,7.50
2022-10-11T09:42:51.415Z,8.07
2022-10-11T09:46:42.595Z,7.70
2022-10-11T09:50:12.906Z,7.80
2022-10-11T09:53:57.333Z,7.80
2022-10-11T09:57:24.372Z,8.50
2022-10-11T10:01:07.875Z,8.70
2022-10-11T10:04:31.947Z,8.00
2022-10-11T10:08:04.702Z,8.48
2022-10-11T10:11:36.770Z,9.23
2022-10-11T10:15:13.949Z,8.88
2022-10-11T10:18:44.026Z,9.05
2022-10-11T10:22:05.819Z,8.95
2022-10-11T10:25:43.102Z,8.27
2022-10-11T10:29:08.154Z,8.70
2022-10-11T10:32:42.809Z,8.40
2022-10-11T10:36:18.884Z,7.60
2022-10-11T10:39:52.716Z,7.78
2022-10-11T10:43:20.108Z,8.20
2022-10-11T10:47:07.572Z,8.45
2022-10-11T10:51:01.250Z,7.70
2022-10-11T10:54:28.655Z,8.40
2022-10-11T10:58:00.666Z,8.55
2022-10-11T11:01:29.088Z,8.10
2022-10-11T11:05:00.593Z,8.65
2022-10-11T11:08:31.051Z,8.15
2022-10-11T11:12:17.095Z,8.25
2022-10-11T11:15:53.537Z,7.90
2022-10-11T11:19:38.086Z,9.18
2022-10-11T11:23:08.156Z,9.63
2022-10-11T11:26:55.206Z,8.38
2022-10-11T11:30:25.771Z,9.27
2022-10-11T11:34:01.640Z,7.88
2022-10-11T11:37:29.536Z,7.80
2022-10-11T11:44:34.447Z,7.50
2022-10-11T11:48:07.759Z,7.22
2022-10-11T11:51:45.318Z,10.85
2022-10-11T11:55:30.737Z,6.77
2022-10-11T11:59:24.235Z,6.95
2022-10-11T12:02:53.552Z,7.28
2022-10-11T12:06:15.125Z,7.43
2022-10-11T12:09:41.356Z,7.50
2022-10-11T12:13:32.463Z,7.05
2022-10-11T12:17:11.630Z,6.90
2022-10-11T12:20:40.783Z,9.00
2022-10-11T12:24:20.932Z,19.83
2022-10-11T12:27:48.406Z,7.68
2022-10-11T12:31:26.150Z,7.88
2022-10-11T12:34:47.715Z,7.47
2022-10-11T12:38:28.820Z,7.65
2022-10-11T12:41:50.297Z,7.70
2022-10-11T12:45:14.391Z,7.20
2022-10-11T12:48:52.558Z,7.90
2022-10-11T12:52:37.043Z,8.43
2022-10-11T12:56:26.630Z,8.50
2022-10-11T12:59:51.817Z,7.55
2022-10-11T13:03:32.755Z,7.70
2022-10-11T13:07:06.629Z,10.55
2022-10-11T13:10:38.485Z,10.60
2022-10-11T13:14:23.078Z,7.10
2022-10-11T13:17:48.709Z,7.38
2022-10-11T13:21:27.058Z,7.60
2022-10-11T13:24:48.710Z,6.90
2022-10-11T13:28:10.387Z,6.97
2022-10-11T13:31:32.999Z,7.38
2022-10-11T13:35:05.865Z,7.82
2022-10-11T13:38:33.568Z,7.45
2022-10-11T13:41:56.568Z,6.85
2022-10-11T13:45:24.054Z,7.07
2022-10-11T13:48:45.889Z,6.90
2022-10-11T13:52:21.907Z,6.95
2022-10-11T13:56:12.512Z,8.32
2022-10-11T13:59:38.852Z,7.25
2022-10-11T14:03:12.811Z,8.38
2022-10-11T14:06:59.691Z,8.00
2022-10-11T14:10:24.735Z,7.80
2022-10-11T14:13:50.011Z,35.92
2022-10-11T14:17:16.291Z,13.45
2022-10-11T14:20:40.130Z,11.30
2022-10-11T14:24:05.836Z,8.50
2022-10-11T14:27:28.102Z,8.50
2022-10-11T14:30:49.720Z,8.57
2022-10-11T14:34:20.460Z,8.13
2022-10-11T14:37:44.518Z,8.75
2022-10-11T14:41:06.198Z,8.85
2022-10-11T14:44:27.753Z,8.32
2022-10-11T14:47:49.837Z,9.52
2022-10-11T14:51:15.455Z,8.75
2022-10-11T14:54:36.974Z,10.43
2022-10-11T14:58:00.811Z,8.70
2022-10-11T15:01:25.111Z,9.18
2022-10-11T15:04:49.953Z,7.88
2022-10-11T15:08:12.065Z,8.27
2022-10-11T15:11:34.336Z,7.97
2022-10-11T15:14:58.075Z,8.13
2022-10-11T15:18:21.974Z,9.05
2022-10-11T15:21:44.011Z,9.18
2022-10-11T15:25:08.233Z,9.00
2022-10-11T15:28:33.275Z,9.60
2022-10-11T15:31:54.859Z,9.23
2022-10-11T15:35:17.920Z,9.27
2022-10-11T15:38:40.053Z,9.23
2022-10-11T15:42:03.769Z,9.77
2022-10-11T15:45:28.768Z,9.73
2022-10-11T15:48:52.218Z,10.73
2022-10-11T15:52:15.992Z,10.68
2022-10-11T15:55:46.180Z,11.68
2022-10-11T15:59:12.474Z,10.02
2022-10-11T16:02:34.061Z,10.07
2022-10-11T16:06:04.853Z,11.30
2022-10-11T16:09:29.569Z,11.57
2022-10-11T16:12:51.123Z,10.73
2022-10-11T16:16:15.164Z,11.77
2022-10-11T16:19:36.905Z,11.40
2022-10-11T16:22:58.573Z,12.65
2022-10-11T16:26:22.462Z,18.27
2022-10-11T16:29:44.017Z,18.27
2022-10-11T16:33:05.591Z,14.10
2022-10-11T16:36:35.511Z,19.52
2022-10-11T16:39:59.327Z,19.90
2022-10-11T16:43:20.843Z,14.98
2022-10-11T16:46:48.270Z,13.05
2022-10-11T16:50:10.507Z,15.13
2022-10-11T16:53:35.824Z,13.32
2022-10-11T16:56:58.349Z,14.63
2022-10-11T17:00:22.387Z,15.10
2022-10-11T17:03:46.244Z,15.88
2022-10-11T17:07:13.528Z,14.73
2022-10-11T17:10:44.320Z,14.60
2022-10-11T17:14:08.229Z,13.63
2022-10-11T17:17:30.696Z,14.20
2022-10-11T17:21:01.148Z,13.88
2022-10-11T17:24:22.786Z,13.93
2022-10-11T17:27:44.319Z,14.25
2022-10-11T17:31:06.375Z,14.32
2022-10-11T17:34:28.304Z,15.23
2022-10-11T17:37:49.987Z,20.85
2022-10-11T17:41:12.253Z,19.80
2022-10-11T17:44:34.670Z,25.63
2022-10-11T17:48:00.571Z,27.15
2022-10-11T17:51:22.239Z,34.67
2022-10-11T17:54:46.090Z,32.80
2022-10-11T17:58:07.995Z,32.53
2022-10-11T18:01:29.783Z,32.03
2022-10-11T18:04:51.360Z,32.15
2022-10-11T18:08:17.769Z,32.42
2022-10-11T18:11:39.591Z,33.13
2022-10-11T18:15:01.177Z,25.20
2022-10-11T18:18:22.715Z,23.58
2022-10-11T18:21:44.454Z,22.63
2022-10-11T18:25:06.212Z,23.63
2022-10-11T18:28:27.804Z,22.00
2022-10-11T18:31:51.673Z,20.05
2022-10-11T18:35:13.217Z,20.23
2022-10-11T18:38:35.347Z,21.00
2022-10-11T18:41:56.877Z,22.10
2022-10-11T18:45:20.592Z,20.23
2022-10-11T18:48:44.361Z,20.10
2022-10-11T18:52:08.498Z,20.58
2022-10-11T18:55:30.069Z,20.17
2022-10-11T18:58:58.428Z,20.40
2022-10-11T19:05:43.775Z,19.42
2022-10-11T19:09:17.913Z,20.52
2022-10-11T19:12:44.271Z,20.75
2022-10-11T19:16:10.552Z,21.15
2022-10-11T19:19:33.158Z,20.65
2022-10-11T19:22:56.945Z,19.75
2022-10-11T19:26:18.789Z,19.88
2022-10-11T19:29:43.343Z,21.75
2022-10-11T19:33:05.537Z,20.70
2022-10-11T19:36:28.941Z,22.30
2022-10-11T19:39:52.074Z,21.75
2022-10-11T19:43:13.644Z,20.88
2022-10-11T19:46:51.096Z,20.45
2022-10-11T19:50:13.849Z,20.15
2022-10-11T19:53:36.149Z,18.42
2022-10-11T19:56:57.776Z,19.35
2022-10-11T20:00:19.587Z,17.95
2022-10-11T20:03:41.147Z,17.70
2022-10-11T20:07:02.641Z,17.95
2022-10-11T20:10:24.455Z,19.13
2022-10-11T20:13:49.307Z,17.60
2022-10-11T20:17:10.936Z,18.35
2022-10-11T20:20:32.743Z,17.83
2022-10-11T20:24:04.340Z,18.77
2022-10-11T20:27:25.850Z,18.75
2022-10-11T20:30:47.386Z,18.10
2022-10-11T20:34:11.756Z,18.38
2022-10-11T20:37:35.915Z,19.08
2022-10-11T20:40:57.817Z,18.35
2022-10-11T20:44:19.366Z,18.02
2022-10-11T20:47:40.901Z,19.67
2022-10-11T20:51:03.246Z,18.27
2022-10-11T20:54:30.574Z,20.83
2022-10-11T20:57:52.121Z,19.40
2022-10-11T21:01:16.652Z,20.17
2022-10-11T21:04:38.247Z,20.60
2022-10-11T21:08:02.107Z,21.73
2022-10-11T21:11:33.664Z,21.63
2022-10-11T21:14:57.699Z,20.95
2022-10-11T21:18:19.600Z,20.45
2022-10-11T21:21:42.105Z,21.02
2022-10-11T21:25:06.484Z,19.85
2022-10-11T21:28:30.247Z,20.58
2022-10-11T21:31:51.822Z,20.08
2022-10-11T21:35:13.402Z,19.90
2022-10-11T21:38:35.590Z,19.55
2022-10-11T21:41:57.111Z,19.73
2022-10-11T21:45:18.725Z,19.73
2022-10-11T21:48:40.832Z,19.77
2022-10-11T21:52:03.645Z,19.42
2022-10-11T21:55:30.380Z,18.85
2022-10-11T21:58:51.914Z,19.65
2022-10-11T22:02:13.442Z,18.67
2022-10-11T22:05:34.988Z,18.60
2022-10-11T22:08:57.220Z,18.88
2022-10-11T22:12:21.369Z,18.48
2022-10-11T22:15:45.143Z,17.67
2022-10-11T22:19:06.950Z,18.90
2022-10-11T22:22:30.715Z,17.40
2022-10-11T22:25:54.586Z,17.90
2022-10-11T22:29:16.088Z,17.17
2022-10-11T22:32:37.897Z,17.63
2022-10-11T22:36:01.720Z,16.30
2022-10-11T22:39:23.256Z,16.77
2022-10-11T22:42:44.821Z,17.30
2022-10-11T22:46:06.646Z,17.45
2022-10-11T22:49:28.174Z,17.95
2022-10-11T22:52:51.829Z,17.60
2022-10-11T22:56:13.499Z,17.23
2022-10-11T22:59:37.174Z,16.98
2022-10-11T23:02:58.741Z,16.58
2022-10-11T23:06:20.287Z,16.88
2022-10-11T23:09:41.797Z,16.52
2022-10-11T23:13:08.456Z,17.17
2022-10-11T23:16:32.322Z,16.35
2022-10-11T23:19:56.220Z,18.00
2022-10-11T23:23:17.744Z,16.05
2022-10-11T23:26:41.549Z,17.27
2022-10-11T23:30:08.756Z,17.00
2022-10-11T23:33:30.831Z,54.40
2022-10-11T23:36:52.322Z,16.95
2022-10-11T23:40:16.417Z,16.15
2022-10-11T23:43:40.978Z,15.13
2022-10-11T23:47:02.945Z,15.13
2022-10-11T23:50:26.688Z,16.17
2022-10-11T23:53:48.237Z,15.45
2022-10-11T23:57:09.756Z,15.75
